Time;durP1;ratioP1;P1;durP2;ratioP2;P2;SDS_P1;SDS_P2;PMS_P1;PMS_P2;Temp;Humidity;BMP_temperature;BMP_pressure;BME280_temperature;BME280_humidity;BME280_pressure;Samples;Min_cycle;Max_cycle;Signal;HPM_P1;HPM_P2
2020/12/25 00:00:22;;;;;;;0.57;0.50;;;10.40;91.10;;;;;;4993833;28;20042;-50
2020/12/25 00:02:48;;;;;;;0.30;0.30;;;10.40;91.10;;;;;;4975348;28;20114;-50
2020/12/25 00:05:13;;;;;;;0.38;0.38;;;10.40;91.00;;;;;;4975256;28;20026;-50
2020/12/25 00:07:39;;;;;;;2.15;0.47;;;10.40;91.00;;;;;;4975270;28;20031;-50
2020/12/25 00:10:05;;;;;;;1.45;0.50;;;10.40;91.00;;;;;;4974977;28;20169;-50
2020/12/25 00:12:30;;;;;;;0.50;0.50;;;10.40;91.00;;;;;;4975217;28;20031;-50
2020/12/25 00:14:56;;;;;;;0.75;0.65;;;10.40;91.00;;;;;;4975104;28;20030;-50
2020/12/25 00:17:21;;;;;;;2.35;0.63;;;10.40;91.00;;;;;;4981954;28;20403;-50
2020/12/25 00:19:47;;;;;;;0.50;0.50;;;10.40;91.00;;;;;;4994631;28;20058;-50
2020/12/25 00:22:13;;;;;;;1.23;0.90;;;10.40;90.90;;;;;;4994166;28;20458;-50
2020/12/25 00:24:40;;;;;;;0.40;0.40;;;10.40;90.90;;;;;;4994397;28;20490;-49
2020/12/25 00:27:06;;;;;;;0.30;0.30;;;10.40;90.90;;;;;;4994251;28;20034;-50
2020/12/25 00:29:32;;;;;;;0.40;0.40;;;10.40;90.90;;;;;;4994061;28;20101;-50
2020/12/25 00:31:57;;;;;;;0.40;0.40;;;10.40;90.90;;;;;;4993929;28;20049;-50
2020/12/25 00:34:23;;;;;;;0.40;0.40;;;10.40;90.90;;;;;;4994214;28;20030;-50
2020/12/25 00:36:48;;;;;;;0.30;0.30;;;10.40;90.90;;;;;;4994146;28;20447;-50
2020/12/25 00:39:16;;;;;;;0.40;0.40;;;10.40;90.90;;;;;;4994186;28;20030;-50
2020/12/25 00:41:41;;;;;;;0.45;0.45;;;10.40;90.80;;;;;;4993592;28;20330;-50
2020/12/25 00:44:07;;;;;;;0.30;0.30;;;10.40;90.80;;;;;;4993912;28;20113;-50
2020/12/25 00:46:33;;;;;;;0.40;0.40;;;10.40;90.80;;;;;;4993955;28;20030;-50
2020/12/25 00:48:58;;;;;;;0.30;0.30;;;10.40;90.80;;;;;;4994095;28;20129;-50
2020/12/25 00:51:24;;;;;;;0.30;0.30;;;10.30;90.70;;;;;;4993317;28;20030;-50
2020/12/25 00:53:49;;;;;;;0.30;0.30;;;10.40;90.80;;;;;;4993875;28;20029;-50
2020/12/25 00:56:16;;;;;;;0.20;0.20;;;10.40;90.70;;;;;;4993748;28;20105;-50
2020/12/25 00:58:42;;;;;;;0.57;0.40;;;10.40;90.80;;;;;;4993587;28;20097;-50
2020/12/25 01:01:09;;;;;;;0.40;0.40;;;10.30;90.70;;;;;;4986660;28;20122;-50
2020/12/25 01:03:35;;;;;;;2.20;0.40;;;10.30;90.70;;;;;;4974192;28;20022;-50
2020/12/25 01:06:01;;;;;;;0.38;0.38;;;10.30;90.70;;;;;;4974296;28;20030;-50
2020/12/25 01:08:27;;;;;;;0.30;0.30;;;10.30;90.70;;;;;;4974256;28;20027;-50
2020/12/25 01:10:52;;;;;;;0.40;0.40;;;10.30;90.70;;;;;;4974048;28;20456;-50
2020/12/25 01:13:18;;;;;;;0.35;0.35;;;10.30;90.60;;;;;;4974036;28;20496;-50
2020/12/25 01:15:44;;;;;;;0.30;0.30;;;10.30;90.60;;;;;;4974206;28;20033;-50
2020/12/25 01:18:10;;;;;;;0.50;0.50;;;10.30;90.70;;;;;;4987552;28;20026;-50
2020/12/25 01:20:36;;;;;;;0.30;0.30;;;10.30;90.60;;;;;;4993601;28;20025;-50
2020/12/25 01:23:05;;;;;;;0.40;0.40;;;10.30;90.60;;;;;;4993124;28;20026;-49
2020/12/25 01:25:30;;;;;;;0.40;0.40;;;10.30;90.60;;;;;;4993372;28;20030;-50
2020/12/25 01:27:56;;;;;;;0.40;0.40;;;10.30;90.60;;;;;;4993121;28;20085;-50
2020/12/25 01:30:22;;;;;;;0.40;0.40;;;10.30;90.60;;;;;;4976002;28;20041;-50
2020/12/25 01:32:47;;;;;;;0.40;0.40;;;10.30;90.50;;;;;;4993005;28;20030;-50
2020/12/25 01:35:13;;;;;;;0.38;0.38;;;10.20;90.50;;;;;;4993299;28;20034;-50
2020/12/25 01:37:39;;;;;;;0.55;0.55;;;10.30;90.50;;;;;;4993159;28;20080;-50
2020/12/25 01:40:05;;;;;;;0.57;0.43;;;10.30;90.60;;;;;;4993314;28;20034;-50
2020/12/25 01:42:33;;;;;;;1.83;0.88;;;10.30;90.50;;;;;;4982919;28;20037;-50
2020/12/25 01:44:58;;;;;;;3.15;1.17;;;10.30;90.50;;;;;;4973902;28;20347;-49
2020/12/25 01:47:24;;;;;;;0.90;0.70;;;10.20;90.50;;;;;;4973834;28;20031;-50
2020/12/25 01:49:50;;;;;;;3.45;1.13;;;10.30;90.50;;;;;;4974185;28;20444;-50
2020/12/25 01:52:17;;;;;;;0.45;0.45;;;10.20;90.50;;;;;;4956089;28;20027;-50
2020/12/25 01:54:43;;;;;;;3.13;1.58;;;10.20;90.50;;;;;;4973596;28;20019;-50
2020/12/25 01:57:11;;;;;;;1.63;0.85;;;10.20;90.50;;;;;;4973413;28;20069;-50
2020/12/25 01:59:37;;;;;;;0.47;0.47;;;10.20;90.40;;;;;;4972040;28;20046;-50
2020/12/25 02:02:03;;;;;;;1.52;0.68;;;10.20;90.40;;;;;;4973174;28;20018;-50
2020/12/25 02:04:29;;;;;;;0.57;0.57;;;10.20;90.40;;;;;;4954407;29;20040;-50
2020/12/25 02:06:55;;;;;;;0.73;0.52;;;10.20;90.40;;;;;;4954402;29;20058;-50
2020/12/25 02:09:20;;;;;;;1.48;0.60;;;10.20;90.40;;;;;;4954225;29;20027;-50
2020/12/25 02:11:46;;;;;;;2.70;0.50;;;10.20;90.40;;;;;;4953762;28;20516;-50
2020/12/25 02:14:12;;;;;;;0.60;0.50;;;10.20;90.40;;;;;;4940297;29;20404;-50
2020/12/25 02:16:38;;;;;;;0.52;0.50;;;10.30;90.40;;;;;;4960476;28;20023;-50
2020/12/25 02:19:03;;;;;;;0.60;0.60;;;10.20;90.40;;;;;;4996641;28;20496;-50
2020/12/25 02:21:29;;;;;;;4.80;0.50;;;10.20;90.40;;;;;;4996339;28;20018;-50
2020/12/25 02:23:55;;;;;;;0.50;0.50;;;10.20;90.40;;;;;;4996550;28;20022;-50
2020/12/25 02:26:20;;;;;;;0.38;0.38;;;10.20;90.30;;;;;;4996354;28;20096;-50
2020/12/25 02:28:46;;;;;;;0.60;0.52;;;10.20;90.30;;;;;;4996445;28;20023;-50
2020/12/25 02:31:12;;;;;;;0.40;0.40;;;10.20;90.30;;;;;;4996228;28;20038;-50
2020/12/25 02:33:37;;;;;;;0.40;0.40;;;10.20;90.30;;;;;;4996304;28;20049;-50
2020/12/25 02:36:03;;;;;;;0.40;0.40;;;10.20;90.30;;;;;;4996387;28;20031;-50
2020/12/25 02:38:28;;;;;;;0.30;0.30;;;10.20;90.30;;;;;;4996338;28;20153;-50
2020/12/25 02:40:54;;;;;;;0.30;0.30;;;10.20;90.30;;;;;;4996221;28;20030;-50
2020/12/25 02:43:20;;;;;;;0.68;0.40;;;10.20;90.30;;;;;;4995795;28;20034;-50
2020/12/25 02:45:45;;;;;;;0.40;0.40;;;10.20;90.30;;;;;;4996503;28;20077;-50
2020/12/25 02:48:11;;;;;;;0.30;0.30;;;10.20;90.30;;;;;;4996140;28;20348;-50
2020/12/25 02:50:36;;;;;;;0.50;0.50;;;10.20;90.20;;;;;;4996125;28;20378;-50
2020/12/25 02:53:02;;;;;;;0.38;0.38;;;10.20;90.20;;;;;;4995727;28;20040;-50
2020/12/25 02:55:28;;;;;;;0.30;0.30;;;10.20;90.20;;;;;;4995843;28;20027;-50
2020/12/25 02:57:53;;;;;;;0.40;0.40;;;10.20;90.20;;;;;;4996176;28;20046;-50
2020/12/25 03:00:19;;;;;;;0.40;0.40;;;10.20;90.20;;;;;;4995958;28;20399;-50
2020/12/25 03:02:44;;;;;;;0.40;0.40;;;10.20;90.20;;;;;;4956815;29;20023;-50
2020/12/25 03:05:10;;;;;;;0.60;0.43;;;10.20;90.20;;;;;;4957187;29;20028;-50
2020/12/25 03:07:36;;;;;;;0.32;0.32;;;10.20;90.50;;;;;;4957048;29;20405;-50
2020/12/25 03:10:01;;;;;;;0.40;0.40;;;10.20;90.20;;;;;;4956779;29;20031;-50
2020/12/25 03:12:27;;;;;;;0.30;0.30;;;10.20;90.20;;;;;;4956869;29;20448;-49
2020/12/25 03:14:52;;;;;;;0.30;0.30;;;10.20;90.10;;;;;;4956972;29;20027;-50
2020/12/25 03:17:18;;;;;;;0.85;0.35;;;10.20;90.10;;;;;;4970216;28;20062;-49
2020/12/25 03:19:44;;;;;;;0.40;0.40;;;10.20;90.10;;;;;;4981491;28;20054;-50
2020/12/25 03:22:09;;;;;;;0.50;0.50;;;10.20;90.10;;;;;;4974821;28;20510;-50
2020/12/25 03:24:35;;;;;;;0.93;0.45;;;10.20;90.10;;;;;;4975313;28;20035;-50
2020/12/25 03:27:01;;;;;;;0.40;0.40;;;10.20;90.10;;;;;;4971340;28;20031;-50
2020/12/25 03:29:26;;;;;;;0.40;0.40;;;10.20;90.10;;;;;;4975787;28;20030;-50
2020/12/25 03:31:52;;;;;;;1.95;0.47;;;10.20;90.10;;;;;;4975615;28;20105;-50
2020/12/25 03:34:17;;;;;;;0.57;0.50;;;10.20;90.10;;;;;;4975940;28;20122;-50
2020/12/25 03:36:43;;;;;;;0.50;0.50;;;10.20;90.10;;;;;;4975881;28;20023;-50
2020/12/25 03:39:09;;;;;;;0.40;0.40;;;10.20;90.10;;;;;;4985543;28;20355;-50
2020/12/25 03:41:34;;;;;;;0.68;0.68;;;10.20;90.10;;;;;;4994614;28;20026;-50
2020/12/25 03:44:00;;;;;;;0.50;0.50;;;10.20;90.10;;;;;;4989920;28;20018;-50
2020/12/25 03:46:32;;;;;;;0.50;0.50;;;10.20;90.10;;;;;;4975690;28;20027;-50
2020/12/25 03:48:58;;;;;;;0.50;0.50;;;10.20;90.10;;;;;;4975448;28;20424;-50
2020/12/25 03:51:23;;;;;;;0.40;0.40;;;10.20;90.10;;;;;;4974926;28;20129;-50
2020/12/25 03:53:49;;;;;;;0.40;0.40;;;10.20;90.10;;;;;;4975601;28;20125;-50
2020/12/25 03:56:16;;;;;;;0.65;0.65;;;10.20;90.10;;;;;;4985178;28;20037;-50
2020/12/25 03:58:41;;;;;;;0.70;0.70;;;10.10;90.00;;;;;;4994022;28;20034;-50
2020/12/25 04:01:07;;;;;;;0.50;0.50;;;10.10;90.00;;;;;;4988269;28;20034;-50
2020/12/25 04:03:33;;;;;;;1.20;0.50;;;10.20;90.10;;;;;;4975204;28;20022;-50
2020/12/25 04:05:58;;;;;;;2.22;0.52;;;10.10;90.00;;;;;;4975311;28;20085;-50
2020/12/25 04:08:24;;;;;;;0.60;0.60;;;10.20;90.00;;;;;;4975296;28;20515;-50
2020/12/25 04:10:50;;;;;;;0.57;0.57;;;10.10;90.00;;;;;;4974878;28;20047;-50
2020/12/25 04:13:15;;;;;;;1.67;0.60;;;10.20;90.00;;;;;;4975040;28;20026;-50
2020/12/25 04:15:41;;;;;;;1.17;0.60;;;10.10;90.00;;;;;;4975059;28;20031;-50
2020/12/25 04:18:06;;;;;;;0.60;0.60;;;10.10;90.00;;;;;;4988268;28;20026;-50
2020/12/25 04:20:32;;;;;;;0.52;0.52;;;10.10;90.00;;;;;;4994404;28;20037;-50
2020/12/25 04:22:58;;;;;;;0.68;0.68;;;10.10;89.90;;;;;;4994169;28;20109;-49
2020/12/25 04:25:23;;;;;;;1.10;0.57;;;10.10;89.90;;;;;;4994058;28;20037;-50
2020/12/25 04:27:49;;;;;;;0.60;0.60;;;10.10;89.90;;;;;;4994371;28;20018;-50
2020/12/25 04:30:15;;;;;;;0.55;0.55;;;10.10;89.90;;;;;;4994257;28;20093;-50
2020/12/25 04:32:40;;;;;;;0.60;0.57;;;10.10;90.00;;;;;;4993737;28;20057;-50
2020/12/25 04:35:06;;;;;;;0.80;0.60;;;10.10;89.90;;;;;;4993816;28;20027;-50
2020/12/25 04:37:32;;;;;;;2.83;0.65;;;10.10;89.90;;;;;;4994256;28;20026;-50
2020/12/25 04:39:58;;;;;;;1.35;0.90;;;10.10;89.90;;;;;;4993840;28;20058;-50
2020/12/25 04:42:27;;;;;;;0.63;0.63;;;10.10;89.90;;;;;;4993712;28;20058;-50
2020/12/25 04:44:53;;;;;;;0.60;0.60;;;10.20;89.80;;;;;;4994054;28;20030;-50
2020/12/25 04:47:19;;;;;;;0.43;0.43;;;10.10;89.90;;;;;;4994126;28;20022;-50
2020/12/25 04:49:45;;;;;;;0.55;0.55;;;10.10;89.80;;;;;;4993875;28;20029;-50
2020/12/25 04:52:10;;;;;;;0.52;0.52;;;10.10;89.80;;;;;;4993408;28;20035;-50
2020/12/25 04:54:36;;;;;;;0.52;0.50;;;10.10;89.80;;;;;;4993756;28;20027;-50
2020/12/25 04:57:02;;;;;;;3.53;0.93;;;10.10;89.70;;;;;;4993831;28;20030;-50
2020/12/25 04:59:29;;;;;;;1.58;0.60;;;10.10;89.80;;;;;;4993781;28;20030;-50
2020/12/25 05:01:56;;;;;;;8.55;0.65;;;10.10;89.80;;;;;;4980684;28;20027;-50
2020/12/25 05:04:24;;;;;;;0.50;0.50;;;10.10;89.70;;;;;;4974378;28;20388;-50
2020/12/25 05:06:51;;;;;;;0.60;0.60;;;10.10;89.70;;;;;;4974063;28;20030;-50
2020/12/25 05:09:24;;;;;;;0.47;0.47;;;10.10;89.70;;;;;;4974164;28;20034;-49
2020/12/25 05:11:54;;;;;;;0.65;0.65;;;10.10;89.70;;;;;;4973658;28;20047;-49
2020/12/25 05:14:27;;;;;;;0.75;0.50;;;10.10;89.70;;;;;;4974228;28;20042;-50
2020/12/25 05:16:58;;;;;;;0.50;0.50;;;10.10;89.60;;;;;;4977251;28;20480;-50
2020/12/25 05:19:29;;;;;;;0.50;0.50;;;10.10;89.60;;;;;;4993404;28;20030;-50
2020/12/25 05:21:57;;;;;;;0.50;0.50;;;10.20;89.60;;;;;;4993423;28;20348;-50
2020/12/25 05:24:23;;;;;;;0.40;0.40;;;10.10;89.50;;;;;;4993469;28;20360;-49
2020/12/25 05:26:57;;;;;;;0.77;0.65;;;10.10;89.60;;;;;;4993401;28;20065;-50
2020/12/25 05:29:28;;;;;;;0.65;0.65;;;10.10;89.50;;;;;;4993679;28;20452;-50
2020/12/25 05:31:54;;;;;;;0.70;0.70;;;10.10;89.50;;;;;;4992707;28;20034;-49
2020/12/25 05:34:21;;;;;;;0.57;0.57;;;10.10;89.50;;;;;;4993740;28;20526;-50
2020/12/25 05:36:54;;;;;;;0.80;0.80;;;10.10;89.30;;;;;;4993534;28;20038;-50
2020/12/25 05:39:37;;;;;;;0.73;0.70;;;10.10;89.30;;;;;;4975737;28;20364;-50
2020/12/25 05:42:08;;;;;;;0.75;0.68;;;10.10;89.40;;;;;;4992940;28;20057;-49
2020/12/25 05:44:59;;;;;;;1.00;1.00;;;10.10;89.30;;;;;;4993632;28;20060;-49
2020/12/25 05:47:25;;;;;;;0.60;0.60;;;10.20;89.40;;;;;;4990874;28;20034;-50
2020/12/25 05:49:52;;;;;;;0.70;0.70;;;10.10;89.30;;;;;;4997259;28;20057;-49
2020/12/25 05:52:17;;;;;;;0.85;0.80;;;10.10;89.30;;;;;;4996798;28;20444;-50
2020/12/25 05:54:47;;;;;;;0.73;0.73;;;10.20;89.30;;;;;;4997257;28;20022;-49
2020/12/25 05:57:14;;;;;;;0.70;0.70;;;10.10;89.20;;;;;;4997569;28;20029;-49
2020/12/25 05:59:46;;;;;;;0.90;0.88;;;10.10;89.30;;;;;;4997286;28;20101;-50
2020/12/25 06:02:14;;;;;;;1.15;1.05;;;10.10;89.20;;;;;;4981579;28;20433;-50
2020/12/25 06:04:41;;;;;;;1.60;0.80;;;10.10;89.30;;;;;;4977608;28;20092;-50
2020/12/25 06:07:10;;;;;;;0.70;0.70;;;10.10;89.20;;;;;;4977328;28;20027;-49
2020/12/25 06:09:44;;;;;;;0.68;0.68;;;10.10;89.30;;;;;;4977305;28;20034;-49
2020/12/25 06:12:14;;;;;;;1.00;1.00;;;10.10;89.20;;;;;;4976948;28;20463;-50
2020/12/25 06:14:40;;;;;;;;;;;10.10;89.30;;;;;;4978200;28;20023;-50
2020/12/25 06:17:20;;;;;;;1.63;0.80;;;10.10;89.20;;;;;;4982165;28;20052;-50
2020/12/25 06:20:04;;;;;;;1.13;1.02;;;10.10;89.90;;;;;;4996800;28;20037;-50
2020/12/25 06:22:38;;;;;;;0.77;0.75;;;10.10;89.20;;;;;;4996645;28;20022;-50
2020/12/25 06:25:08;;;;;;;0.82;0.82;;;10.10;89.10;;;;;;4996720;28;20356;-49
2020/12/25 06:27:34;;;;;;;2.33;1.17;;;10.20;89.20;;;;;;4996435;28;20436;-50
2020/12/25 06:30:06;;;;;;;1.10;0.95;;;10.10;89.10;;;;;;4996520;28;20363;-49
2020/12/25 06:32:32;;;;;;;0.80;0.80;;;10.10;89.00;;;;;;4985159;28;20027;-49
2020/12/25 06:35:00;;;;;;;0.98;0.88;;;10.10;89.10;;;;;;4976723;28;20019;-50
2020/12/25 06:37:29;;;;;;;0.95;0.90;;;10.10;89.00;;;;;;4976758;28;20034;-49
2020/12/25 06:40:04;;;;;;;1.90;1.10;;;10.10;89.00;;;;;;4976815;28;20019;-49
2020/12/25 06:42:33;;;;;;;0.85;0.85;;;10.10;89.10;;;;;;4976164;28;20030;-49
2020/12/25 06:45:00;;;;;;;1.00;0.90;;;10.10;89.00;;;;;;4976615;28;20482;-49
2020/12/25 06:47:37;;;;;;;1.23;1.10;;;10.10;89.10;;;;;;4959107;28;20027;-50
2020/12/25 06:50:14;;;;;;;1.10;1.00;;;10.10;89.00;;;;;;4976264;28;20363;-50
2020/12/25 06:52:57;;;;;;;1.17;1.08;;;10.10;89.10;;;;;;4970834;28;20031;-49
2020/12/25 06:55:43;;;;;;;1.08;1.00;;;10.10;89.10;;;;;;4976338;28;20023;-50
2020/12/25 06:58:10;;;;;;;1.38;1.13;;;10.10;89.00;;;;;;4975900;28;20035;-49
2020/12/25 07:00:39;;;;;;;3.30;1.35;;;10.10;88.90;;;;;;4960838;28;87963;-50
2020/12/25 07:03:13;;;;;;;1.45;1.35;;;10.10;88.90;;;;;;4937888;29;20039;-50
2020/12/25 07:05:48;;;;;;;3.00;1.40;;;10.10;88.80;;;;;;4937777;29;20028;-50
2020/12/25 07:08:33;;;;;;;3.25;1.35;;;10.10;88.80;;;;;;4937776;29;20115;-50
2020/12/25 07:11:22;;;;;;;1.05;1.00;;;10.10;88.80;;;;;;4937743;29;20042;-49
2020/12/25 07:13:48;;;;;;;1.50;1.20;;;10.10;88.80;;;;;;4909071;29;20082;-50
2020/12/25 07:16:14;;;;;;;2.67;1.30;;;10.10;88.80;;;;;;4858354;29;20035;-50
2020/12/25 07:18:40;;;;;;;2.50;1.38;;;10.10;88.80;;;;;;4925302;29;20469;-50
2020/12/25 07:21:10;;;;;;;2.40;1.38;;;10.10;88.80;;;;;;4926192;29;20031;-50
2020/12/25 07:23:46;;;;;;;1.95;1.30;;;10.10;88.80;;;;;;4928224;29;20042;-50
2020/12/25 07:26:12;;;;;;;1.52;1.35;;;10.10;88.70;;;;;;4929920;29;20035;-50
2020/12/25 07:28:39;;;;;;;1.35;1.10;;;10.10;88.70;;;;;;4926154;29;20385;-50
2020/12/25 07:31:05;;;;;;;1.33;1.23;;;10.10;88.80;;;;;;4928056;29;20175;-50
2020/12/25 07:33:31;;;;;;;1.95;1.75;;;10.10;88.80;;;;;;4926352;29;20148;-49
2020/12/25 07:35:58;;;;;;;1.45;1.20;;;10.10;88.70;;;;;;4923399;29;20056;-50
2020/12/25 07:38:25;;;;;;;1.65;1.40;;;10.10;88.70;;;;;;4923937;29;20020;-50
2020/12/25 07:40:51;;;;;;;4.63;1.33;;;10.10;88.70;;;;;;4932444;29;20032;-50
2020/12/25 07:43:17;;;;;;;1.35;1.25;;;10.10;88.80;;;;;;4924859;29;20039;-50
2020/12/25 07:45:43;;;;;;;1.98;1.35;;;10.10;88.70;;;;;;4927024;29;20037;-50
2020/12/25 07:48:09;;;;;;;1.73;1.55;;;10.10;88.70;;;;;;4929699;29;20414;-50
2020/12/25 07:50:42;;;;;;;3.22;1.20;;;10.10;88.70;;;;;;4925623;29;20221;-50
2020/12/25 07:53:10;;;;;;;1.48;1.33;;;10.10;88.80;;;;;;4929394;29;20027;-50
2020/12/25 07:55:36;;;;;;;1.88;1.40;;;10.10;88.70;;;;;;4927484;29;20035;-49
2020/12/25 07:58:02;;;;;;;0.80;0.77;;;10.10;88.80;;;;;;4926786;29;20347;-50
2020/12/25 08:00:30;;;;;;;1.30;1.17;;;10.20;88.70;;;;;;4922970;29;20043;-50
2020/12/25 08:02:58;;;;;;;1.00;0.93;;;10.10;88.70;;;;;;4923816;29;20043;-50
2020/12/25 08:05:27;;;;;;;1.70;1.30;;;10.10;88.70;;;;;;4923991;29;20395;-49
2020/12/25 08:07:53;;;;;;;1.48;1.33;;;10.10;88.70;;;;;;4927581;29;20422;-49
2020/12/25 08:10:19;;;;;;;1.27;1.17;;;10.20;88.80;;;;;;4927507;29;20098;-50
2020/12/25 08:12:49;;;;;;;1.27;1.15;;;10.20;88.70;;;;;;4929383;29;20091;-50
2020/12/25 08:15:15;;;;;;;1.33;1.23;;;10.20;88.70;;;;;;4934538;29;20035;-49
2020/12/25 08:17:41;;;;;;;1.20;1.10;;;10.20;88.60;;;;;;4929087;29;20121;-50
2020/12/25 08:20:07;;;;;;;1.20;1.10;;;10.20;88.80;;;;;;4936388;29;20034;-50
2020/12/25 08:22:35;;;;;;;1.42;1.33;;;10.20;88.70;;;;;;4935321;29;20031;-50
2020/12/25 08:25:01;;;;;;;1.48;1.35;;;10.20;88.70;;;;;;4936687;29;20465;-49
2020/12/25 08:27:32;;;;;;;2.33;1.50;;;10.10;88.80;;;;;;4936656;29;20035;-50
2020/12/25 08:30:00;;;;;;;2.63;1.20;;;10.10;88.70;;;;;;4936379;29;20086;-49
2020/12/25 08:32:25;;;;;;;2.00;1.63;;;10.10;88.80;;;;;;4936027;29;20146;-49
2020/12/25 08:35:14;;;;;;;2.05;1.35;;;10.10;88.70;;;;;;4936384;29;20023;-49
2020/12/25 08:37:49;;;;;;;2.15;1.63;;;10.10;88.60;;;;;;4920491;29;20028;-50
2020/12/25 08:40:16;;;;;;;2.42;1.50;;;10.10;88.80;;;;;;4935416;29;20515;-50
2020/12/25 08:42:42;;;;;;;2.88;1.67;;;10.10;88.80;;;;;;4935128;29;20031;-50
2020/12/25 08:45:09;;;;;;;5.13;1.95;;;10.10;88.80;;;;;;4924471;29;20326;-50
2020/12/25 08:47:35;;;;;;;2.47;2.08;;;10.10;88.80;;;;;;4930415;29;20079;-50
2020/12/25 08:50:01;;;;;;;1.52;1.40;;;10.10;88.80;;;;;;4921762;29;20067;-50
2020/12/25 08:52:28;;;;;;;3.13;1.52;;;10.10;88.80;;;;;;4921665;29;20071;-50
2020/12/25 08:55:00;;;;;;;3.13;2.35;;;10.20;88.90;;;;;;4934136;29;20020;-50
2020/12/25 08:57:26;;;;;;;2.25;1.60;;;10.20;88.90;;;;;;4928117;29;20040;-50
2020/12/25 09:00:10;;;;;;;1.75;1.58;;;10.20;88.80;;;;;;4938524;29;20034;-50
2020/12/25 09:02:36;;;;;;;4.22;2.60;;;10.20;88.80;;;;;;4925635;29;20040;-50
2020/12/25 09:05:01;;;;;;;7.82;2.10;;;10.20;88.90;;;;;;4933666;29;20039;-50
2020/12/25 09:07:27;;;;;;;2.35;1.33;;;10.20;89.00;;;;;;4929641;29;20118;-50
2020/12/25 09:09:52;;;;;;;7.13;2.45;;;10.20;88.90;;;;;;4933401;29;20043;-50
2020/12/25 09:12:19;;;;;;;2.53;1.65;;;10.20;88.90;;;;;;4932278;29;20031;-50
2020/12/25 09:14:44;;;;;;;1.73;1.42;;;10.20;88.90;;;;;;4924292;29;20118;-50
2020/12/25 09:17:10;;;;;;;2.30;1.92;;;10.20;89.00;;;;;;4935325;29;20509;-50
2020/12/25 09:19:35;;;;;;;3.20;1.80;;;10.20;88.90;;;;;;4935318;29;20028;-49
2020/12/25 09:22:01;;;;;;;3.45;2.05;;;10.20;89.10;;;;;;4932038;29;20024;-49
2020/12/25 09:24:27;;;;;;;2.67;1.77;;;10.20;89.10;;;;;;4935410;29;20225;-50
2020/12/25 09:26:52;;;;;;;3.47;1.92;;;10.20;88.70;;;;;;4934565;29;20023;-50
2020/12/25 09:29:18;;;;;;;1.63;1.52;;;10.20;89.00;;;;;;4932288;29;20338;-50
2020/12/25 09:31:44;;;;;;;4.25;1.77;;;10.20;89.30;;;;;;4932496;29;20059;-50
2020/12/25 09:34:10;;;;;;;2.13;1.73;;;10.20;89.10;;;;;;4918125;29;20079;-50
2020/12/25 09:36:36;;;;;;;2.40;1.77;;;10.20;88.90;;;;;;4916260;29;20076;-49
2020/12/25 09:39:02;;;;;;;3.17;1.98;;;10.20;89.10;;;;;;4921466;29;20032;-49
2020/12/25 09:41:27;;;;;;;2.85;1.90;;;10.20;89.20;;;;;;4935527;29;20024;-50
2020/12/25 09:43:53;;;;;;;2.70;1.77;;;10.30;89.20;;;;;;4935320;29;20038;-50
2020/12/25 09:46:19;;;;;;;3.10;1.90;;;10.20;89.00;;;;;;4927934;29;20036;-49
2020/12/25 09:48:44;;;;;;;2.70;1.73;;;10.30;89.40;;;;;;4935089;29;20036;-49
2020/12/25 09:51:10;;;;;;;1.83;1.42;;;10.30;89.30;;;;;;4935075;29;20031;-49
2020/12/25 09:53:36;;;;;;;4.90;3.00;;;10.30;89.20;;;;;;4935011;29;20114;-49
2020/12/25 09:56:01;;;;;;;3.10;2.05;;;10.30;89.40;;;;;;4933958;29;20032;-50
2020/12/25 09:58:27;;;;;;;3.30;2.08;;;10.30;89.30;;;;;;4934730;29;20047;-49
2020/12/25 10:00:53;;;;;;;3.95;2.53;;;10.40;89.30;;;;;;4919390;29;20032;-49
2020/12/25 10:03:19;;;;;;;4.10;1.80;;;10.40;89.40;;;;;;4904251;29;20036;-50
2020/12/25 10:05:45;;;;;;;4.90;1.90;;;10.40;89.40;;;;;;4915094;29;20035;-50
2020/12/25 10:08:10;;;;;;;3.63;2.13;;;10.40;89.60;;;;;;4899156;29;20024;-49
2020/12/25 10:10:36;;;;;;;2.17;1.45;;;10.30;89.30;;;;;;4904091;29;20099;-50
2020/12/25 10:13:02;;;;;;;2.63;1.65;;;10.40;88.90;;;;;;4908164;29;20160;-49
2020/12/25 10:15:27;;;;;;;1.75;1.25;;;10.30;89.50;;;;;;4912682;29;20039;-50
2020/12/25 10:17:53;;;;;;;2.08;1.70;;;10.40;89.80;;;;;;4914994;29;20413;-50
2020/12/25 10:20:19;;;;;;;3.50;1.58;;;10.40;89.70;;;;;;4915529;29;20091;-50
2020/12/25 10:22:44;;;;;;;1.40;1.27;;;10.40;89.90;;;;;;4915529;29;20115;-50
2020/12/25 10:25:10;;;;;;;1.63;1.10;;;10.40;90.00;;;;;;4912406;28;20059;-50
2020/12/25 10:27:36;;;;;;;2.10;1.45;;;10.40;90.00;;;;;;4915556;29;20039;-49
2020/12/25 10:30:01;;;;;;;1.98;1.50;;;10.30;89.90;;;;;;4913840;29;20025;-50
2020/12/25 10:32:27;;;;;;;2.05;1.52;;;10.40;89.70;;;;;;4912028;29;20426;-50
2020/12/25 10:34:53;;;;;;;2.38;1.67;;;10.30;89.70;;;;;;4916624;29;20099;-50
2020/12/25 10:37:19;;;;;;;1.48;1.38;;;10.30;89.50;;;;;;4918674;29;20064;-50
2020/12/25 10:39:45;;;;;;;2.00;1.55;;;10.30;89.40;;;;;;4918210;29;20068;-50
2020/12/25 10:42:11;;;;;;;2.92;1.83;;;10.30;89.30;;;;;;4919058;29;20047;-50
2020/12/25 10:44:38;;;;;;;3.30;1.80;;;10.30;89.80;;;;;;4918216;29;20032;-50
2020/12/25 10:47:04;;;;;;;2.00;1.50;;;10.30;89.50;;;;;;4917784;29;20461;-49
2020/12/25 10:49:30;;;;;;;1.90;1.70;;;10.30;89.70;;;;;;4918463;29;20106;-50
2020/12/25 10:51:55;;;;;;;2.08;1.60;;;10.30;89.50;;;;;;4917874;29;20135;-50
2020/12/25 10:54:21;;;;;;;4.95;1.65;;;10.30;89.70;;;;;;4918058;29;20431;-49
2020/12/25 10:56:47;;;;;;;4.78;1.40;;;10.30;89.80;;;;;;4918121;29;20036;-50
2020/12/25 10:59:13;;;;;;;1.95;1.55;;;10.20;89.90;;;;;;4932259;29;20028;-50
2020/12/25 11:01:38;;;;;;;1.98;1.58;;;10.20;89.90;;;;;;4917775;29;20032;-50
2020/12/25 11:04:04;;;;;;;1.63;1.35;;;10.30;89.70;;;;;;4918152;29;20044;-49
2020/12/25 11:06:35;;;;;;;2.72;1.80;;;10.30;89.50;;;;;;4918169;29;20028;-50
2020/12/25 11:09:01;;;;;;;;;;;10.20;89.90;;;;;;4919352;29;20059;-50
2020/12/25 11:11:28;;;;;;;1.52;1.40;;;10.30;90.00;;;;;;4917714;29;19919;-50
2020/12/25 11:13:54;;;;;;;2.38;1.40;;;10.30;89.50;;;;;;4918283;29;20020;-49
2020/12/25 11:16:30;;;;;;;1.52;1.42;;;10.30;89.90;;;;;;4917945;29;20040;-50
2020/12/25 11:18:57;;;;;;;2.42;1.60;;;10.40;89.80;;;;;;4918772;29;20028;-50
2020/12/25 11:21:28;;;;;;;1.85;1.52;;;10.40;90.00;;;;;;4917068;29;20032;-50
2020/12/25 11:23:55;;;;;;;3.10;1.77;;;10.40;89.60;;;;;;4918688;29;20024;-50
2020/12/25 11:26:29;;;;;;;1.70;1.38;;;10.40;89.70;;;;;;4918387;29;20458;-50
2020/12/25 11:28:56;;;;;;;2.33;1.70;;;10.40;89.80;;;;;;4918189;29;20028;-50
2020/12/25 11:31:22;;;;;;;2.95;1.80;;;10.40;89.90;;;;;;4916612;29;20043;-50
2020/12/25 11:33:49;;;;;;;3.17;1.77;;;10.40;89.80;;;;;;4918010;29;20024;-50
2020/12/25 11:36:23;;;;;;;2.33;1.77;;;10.40;89.70;;;;;;4915975;29;20036;-50
2020/12/25 11:38:50;;;;;;;1.92;1.42;;;10.30;89.90;;;;;;4899265;29;20029;-50
2020/12/25 11:41:18;;;;;;;2.05;1.63;;;10.40;90.00;;;;;;4916682;29;20028;-50
2020/12/25 11:43:44;;;;;;;2.10;1.60;;;10.40;90.00;;;;;;4918394;29;20046;-50
2020/12/25 11:46:10;;;;;;;2.65;1.80;;;10.30;90.00;;;;;;4915909;29;20346;-50
2020/12/25 11:48:38;;;;;;;2.88;2.00;;;10.30;90.00;;;;;;4920325;29;20449;-49
2020/12/25 11:51:04;;;;;;;3.05;1.98;;;10.30;90.00;;;;;;4917105;29;20370;-50
2020/12/25 11:53:30;;;;;;;2.05;1.80;;;10.40;90.00;;;;;;4917760;29;20332;-50
2020/12/25 11:55:56;;;;;;;4.25;2.63;;;10.30;89.80;;;;;;4917792;29;20453;-50
2020/12/25 11:58:21;;;;;;;4.03;2.70;;;10.30;89.80;;;;;;4917279;29;20506;-50
2020/12/25 12:00:47;;;;;;;16.95;5.03;;;10.30;89.90;;;;;;4917195;29;20078;-50
2020/12/25 12:03:13;;;;;;;24.70;6.68;;;10.30;90.00;;;;;;4916631;29;20036;-50
2020/12/25 12:05:43;;;;;;;19.85;5.05;;;10.30;89.80;;;;;;4917692;29;20087;-49
2020/12/25 12:08:09;;;;;;;24.70;7.35;;;10.30;89.90;;;;;;4913529;29;20048;-50
2020/12/25 12:10:35;;;;;;;8.70;3.90;;;10.30;89.90;;;;;;4916471;29;20063;-49
2020/12/25 12:13:02;;;;;;;3.53;2.00;;;10.30;89.90;;;;;;4917206;29;20028;-50
2020/12/25 12:15:27;;;;;;;4.97;2.10;;;10.30;89.50;;;;;;4917937;29;20024;-50
2020/12/25 12:17:53;;;;;;;4.20;2.83;;;10.30;89.90;;;;;;4916911;29;20035;-50
2020/12/25 12:20:18;;;;;;;5.13;2.95;;;10.30;89.70;;;;;;4916857;29;20028;-50
2020/12/25 12:22:44;;;;;;;4.57;2.30;;;10.30;89.90;;;;;;4916352;29;20040;-49
2020/12/25 12:25:10;;;;;;;3.42;2.42;;;10.30;89.60;;;;;;4915321;29;20354;-50
2020/12/25 12:27:35;;;;;;;6.00;3.03;;;10.30;89.70;;;;;;4916108;29;20026;-50
2020/12/25 12:30:06;;;;;;;3.42;2.53;;;10.30;89.50;;;;;;4917526;29;20137;-50
2020/12/25 12:32:32;;;;;;;5.85;3.17;;;10.30;89.70;;;;;;4915758;29;20458;-50
2020/12/25 12:34:58;;;;;;;4.55;2.67;;;10.30;89.70;;;;;;4915924;29;20043;-50
2020/12/25 12:37:23;;;;;;;9.35;3.63;;;10.30;89.70;;;;;;4918967;29;20032;-50
2020/12/25 12:39:49;;;;;;;4.93;3.05;;;10.30;89.70;;;;;;4915958;29;20029;-50
2020/12/25 12:42:15;;;;;;;5.60;3.00;;;10.20;89.70;;;;;;4933210;29;20028;-49
2020/12/25 12:44:40;;;;;;;4.28;2.70;;;10.20;90.20;;;;;;4917241;29;20147;-49
2020/12/25 12:47:06;;;;;;;3.47;2.60;;;10.20;89.70;;;;;;4916877;29;20441;-50